sensor_id;sensor_type;location;lat;lon;timestamp;temperature;humidity
4279;DHT22;2153;47.744;10.580;2023-06-19T00:01:30;16.40;99.90
4279;DHT22;2153;47.744;10.580;2023-06-19T00:03:56;16.50;99.90
4279;DHT22;2153;47.744;10.580;2023-06-19T00:06:23;16.50;99.90
4279;DHT22;2153;47.744;10.580;2023-06-19T00:08:50;16.50;99.90
4279;DHT22;2153;47.744;10.580;2023-06-19T00:11:17;16.50;99.90
4279;DHT22;2153;47.744;10.580;2023-06-19T00:13:43;16.30;99.90
4279;DHT22;2153;47.744;10.580;2023-06-19T00:16:11;16.30;99.90
4279;DHT22;2153;47.744;10.580;2023-06-19T00:18:38;16.30;99.90
4279;DHT22;2153;47.744;10.580;2023-06-19T00:21:06;16.30;99.90
4279;DHT22;2153;47.744;10.580;2023-06-19T00:23:32;16.40;99.90
4279;DHT22;2153;47.744;10.580;2023-06-19T00:25:59;16.30;99.90
4279;DHT22;2153;47.744;10.580;2023-06-19T00:28:26;16.30;99.90
4279;DHT22;2153;47.744;10.580;2023-06-19T00:30:53;16.30;99.90
4279;DHT22;2153;47.744;10.580;2023-06-19T00:33:21;16.30;99.90
4279;DHT22;2153;47.744;10.580;2023-06-19T00:35:50;16.20;99.90
4279;DHT22;2153;47.744;10.580;2023-06-19T00:38:17;16.20;99.90
4279;DHT22;2153;47.744;10.580;2023-06-19T00:40:43;16.20;99.90
4279;DHT22;2153;47.744;10.580;2023-06-19T00:43:10;16.20;99.90
4279;DHT22;2153;47.744;10.580;2023-06-19T00:45:38;16.20;99.90
4279;DHT22;2153;47.744;10.580;2023-06-19T00:48:05;16.10;99.90
4279;DHT22;2153;47.744;10.580;2023-06-19T00:50:33;16.10;99.90
4279;DHT22;2153;47.744;10.580;2023-06-19T00:53:01;16.20;99.90
4279;DHT22;2153;47.744;10.580;2023-06-19T00:55:30;16.40;99.90
4279;DHT22;2153;47.744;10.580;2023-06-19T00:57:59;16.50;99.90
4279;DHT22;2153;47.744;10.580;2023-06-19T01:00:26;16.60;99.90
4279;DHT22;2153;47.744;10.580;2023-06-19T01:02:53;16.60;99.90
4279;DHT22;2153;47.744;10.580;2023-06-19T01:05:19;16.60;99.90
4279;DHT22;2153;47.744;10.580;2023-06-19T01:07:58;16.70;99.90
4279;DHT22;2153;47.744;10.580;2023-06-19T01:10:28;16.80;99.90
4279;DHT22;2153;47.744;10.580;2023-06-19T01:12:57;16.90;99.90
4279;DHT22;2153;47.744;10.580;2023-06-19T01:15:25;16.80;99.90
4279;DHT22;2153;47.744;10.580;2023-06-19T01:17:53;16.70;99.90
4279;DHT22;2153;47.744;10.580;2023-06-19T01:20:20;16.60;99.90
4279;DHT22;2153;47.744;10.580;2023-06-19T01:22:48;16.70;99.90
4279;DHT22;2153;47.744;10.580;2023-06-19T01:25:15;16.70;99.90
4279;DHT22;2153;47.744;10.580;2023-06-19T01:27:42;16.70;99.90
4279;DHT22;2153;47.744;10.580;2023-06-19T01:30:09;16.80;99.90
4279;DHT22;2153;47.744;10.580;2023-06-19T01:32:44;16.70;99.90
4279;DHT22;2153;47.744;10.580;2023-06-19T01:35:15;16.70;99.90
4279;DHT22;2153;47.744;10.580;2023-06-19T01:37:44;16.60;99.90
4279;DHT22;2153;47.744;10.580;2023-06-19T01:40:13;16.60;99.90
4279;DHT22;2153;47.744;10.580;2023-06-19T01:42:41;16.50;99.90
4279;DHT22;2153;47.744;10.580;2023-06-19T01:45:08;16.50;99.90
4279;DHT22;2153;47.744;10.580;2023-06-19T01:47:35;16.50;99.90
4279;DHT22;2153;47.744;10.580;2023-06-19T01:50:02;16.40;99.90
4279;DHT22;2153;47.744;10.580;2023-06-19T01:52:29;16.40;99.90
4279;DHT22;2153;47.744;10.580;2023-06-19T01:54:56;16.40;99.90
4279;DHT22;2153;47.744;10.580;2023-06-19T01:57:24;16.40;99.90
4279;DHT22;2153;47.744;10.580;2023-06-19T01:59:51;16.40;99.90
4279;DHT22;2153;47.744;10.580;2023-06-19T02:02:18;16.40;99.90
4279;DHT22;2153;47.744;10.580;2023-06-19T02:04:44;16.30;99.90
4279;DHT22;2153;47.744;10.580;2023-06-19T02:07:11;16.30;99.90
4279;DHT22;2153;47.744;10.580;2023-06-19T02:09:38;16.30;99.90
4279;DHT22;2153;47.744;10.580;2023-06-19T02:12:05;16.00;99.90
4279;DHT22;2153;47.744;10.580;2023-06-19T02:14:34;16.00;99.90
4279;DHT22;2153;47.744;10.580;2023-06-19T02:17:00;16.00;99.90
4279;DHT22;2153;47.744;10.580;2023-06-19T02:19:27;16.10;99.90
4279;DHT22;2153;47.744;10.580;2023-06-19T02:21:53;16.10;99.90
4279;DHT22;2153;47.744;10.580;2023-06-19T02:24:20;16.20;99.90
4279;DHT22;2153;47.744;10.580;2023-06-19T02:26:46;16.20;99.90
4279;DHT22;2153;47.744;10.580;2023-06-19T02:29:13;16.30;99.90
4279;DHT22;2153;47.744;10.580;2023-06-19T02:31:41;16.60;99.90
4279;DHT22;2153;47.744;10.580;2023-06-19T02:34:08;17.00;99.90
4279;DHT22;2153;47.744;10.580;2023-06-19T02:36:36;17.10;99.90
4279;DHT22;2153;47.744;10.580;2023-06-19T02:39:04;17.20;99.90
4279;DHT22;2153;47.744;10.580;2023-06-19T02:41:31;17.30;99.90
4279;DHT22;2153;47.744;10.580;2023-06-19T02:43:57;17.40;99.90
4279;DHT22;2153;47.744;10.580;2023-06-19T02:46:24;17.40;99.90
4279;DHT22;2153;47.744;10.580;2023-06-19T02:48:52;17.50;99.90
4279;DHT22;2153;47.744;10.580;2023-06-19T02:51:19;17.50;99.90
4279;DHT22;2153;47.744;10.580;2023-06-19T02:53:45;17.50;99.90
4279;DHT22;2153;47.744;10.580;2023-06-19T02:56:13;17.60;99.90
4279;DHT22;2153;47.744;10.580;2023-06-19T02:58:39;17.60;99.90
4279;DHT22;2153;47.744;10.580;2023-06-19T03:01:07;17.60;99.90
4279;DHT22;2153;47.744;10.580;2023-06-19T03:03:34;17.60;99.90
4279;DHT22;2153;47.744;10.580;2023-06-19T03:06:04;17.60;99.90
4279;DHT22;2153;47.744;10.580;2023-06-19T03:08:31;17.60;99.90
4279;DHT22;2153;47.744;10.580;2023-06-19T03:10:57;17.70;99.90
4279;DHT22;2153;47.744;10.580;2023-06-19T03:13:25;17.70;99.90
4279;DHT22;2153;47.744;10.580;2023-06-19T03:15:51;17.70;99.90
4279;DHT22;2153;47.744;10.580;2023-06-19T03:18:18;17.60;99.90
4279;DHT22;2153;47.744;10.580;2023-06-19T03:20:44;17.50;99.90
4279;DHT22;2153;47.744;10.580;2023-06-19T03:23:12;17.50;99.90
4279;DHT22;2153;47.744;10.580;2023-06-19T03:25:39;17.40;99.90
4279;DHT22;2153;47.744;10.580;2023-06-19T03:28:08;17.50;99.90
4279;DHT22;2153;47.744;10.580;2023-06-19T03:30:35;17.50;99.90
4279;DHT22;2153;47.744;10.580;2023-06-19T03:33:01;17.50;99.90
4279;DHT22;2153;47.744;10.580;2023-06-19T03:35:28;17.50;99.90
4279;DHT22;2153;47.744;10.580;2023-06-19T03:37:55;17.50;99.90
4279;DHT22;2153;47.744;10.580;2023-06-19T03:40:23;17.60;99.90
4279;DHT22;2153;47.744;10.580;2023-06-19T03:42:49;17.70;99.90
4279;DHT22;2153;47.744;10.580;2023-06-19T03:45:16;17.80;99.90
4279;DHT22;2153;47.744;10.580;2023-06-19T03:47:42;17.90;99.90
4279;DHT22;2153;47.744;10.580;2023-06-19T03:50:09;18.00;99.90
4279;DHT22;2153;47.744;10.580;2023-06-19T03:52:36;18.00;99.90
4279;DHT22;2153;47.744;10.580;2023-06-19T03:55:03;18.10;99.90
4279;DHT22;2153;47.744;10.580;2023-06-19T03:57:32;18.10;99.90
4279;DHT22;2153;47.744;10.580;2023-06-19T03:59:58;18.10;99.90
4279;DHT22;2153;47.744;10.580;2023-06-19T04:02:25;18.10;99.90
4279;DHT22;2153;47.744;10.580;2023-06-19T04:04:51;18.10;99.90
4279;DHT22;2153;47.744;10.580;2023-06-19T04:07:18;18.10;99.90
4279;DHT22;2153;47.744;10.580;2023-06-19T04:09:45;18.10;99.90
4279;DHT22;2153;47.744;10.580;2023-06-19T04:12:12;18.20;99.90
4279;DHT22;2153;47.744;10.580;2023-06-19T04:14:39;18.40;99.90
4279;DHT22;2153;47.744;10.580;2023-06-19T04:17:06;18.50;99.90
4279;DHT22;2153;47.744;10.580;2023-06-19T04:19:33;18.60;99.90
4279;DHT22;2153;47.744;10.580;2023-06-19T04:21:59;18.80;99.90
4279;DHT22;2153;47.744;10.580;2023-06-19T04:24:26;18.90;99.90
4279;DHT22;2153;47.744;10.580;2023-06-19T04:26:53;18.90;99.90
4279;DHT22;2153;47.744;10.580;2023-06-19T04:29:19;19.00;99.90
4279;DHT22;2153;47.744;10.580;2023-06-19T04:31:47;19.00;99.90
4279;DHT22;2153;47.744;10.580;2023-06-19T04:34:15;19.10;99.90
4279;DHT22;2153;47.744;10.580;2023-06-19T04:36:42;19.10;99.90
4279;DHT22;2153;47.744;10.580;2023-06-19T04:39:09;19.10;99.90
4279;DHT22;2153;47.744;10.580;2023-06-19T04:41:36;19.20;99.90
4279;DHT22;2153;47.744;10.580;2023-06-19T04:44:04;19.20;99.90
4279;DHT22;2153;47.744;10.580;2023-06-19T04:46:31;19.10;99.90
4279;DHT22;2153;47.744;10.580;2023-06-19T04:48:59;19.10;99.90
4279;DHT22;2153;47.744;10.580;2023-06-19T04:51:30;19.10;99.90
4279;DHT22;2153;47.744;10.580;2023-06-19T04:53:58;19.10;99.90
4279;DHT22;2153;47.744;10.580;2023-06-19T04:56:24;19.00;99.90
4279;DHT22;2153;47.744;10.580;2023-06-19T04:58:51;19.00;99.90
4279;DHT22;2153;47.744;10.580;2023-06-19T05:01:21;19.00;99.90
4279;DHT22;2153;47.744;10.580;2023-06-19T05:03:53;18.90;99.90
4279;DHT22;2153;47.744;10.580;2023-06-19T05:06:21;18.90;99.90
4279;DHT22;2153;47.744;10.580;2023-06-19T05:08:48;19.00;99.90
4279;DHT22;2153;47.744;10.580;2023-06-19T05:11:14;19.00;99.90
4279;DHT22;2153;47.744;10.580;2023-06-19T05:13:41;19.00;99.90
4279;DHT22;2153;47.744;10.580;2023-06-19T05:16:08;19.10;99.90
4279;DHT22;2153;47.744;10.580;2023-06-19T05:18:34;19.20;99.90
4279;DHT22;2153;47.744;10.580;2023-06-19T05:21:01;19.30;99.90
4279;DHT22;2153;47.744;10.580;2023-06-19T05:23:29;19.40;99.90
4279;DHT22;2153;47.744;10.580;2023-06-19T05:25:56;19.50;99.90
4279;DHT22;2153;47.744;10.580;2023-06-19T05:28:22;19.60;99.90
4279;DHT22;2153;47.744;10.580;2023-06-19T05:30:49;19.70;99.90
4279;DHT22;2153;47.744;10.580;2023-06-19T05:33:16;19.70;99.90
4279;DHT22;2153;47.744;10.580;2023-06-19T05:35:43;19.80;99.90
4279;DHT22;2153;47.744;10.580;2023-06-19T05:38:16;19.90;99.90
4279;DHT22;2153;47.744;10.580;2023-06-19T05:40:44;20.20;99.90
4279;DHT22;2153;47.744;10.580;2023-06-19T05:43:11;20.60;99.90
4279;DHT22;2153;47.744;10.580;2023-06-19T05:45:38;20.90;99.90
4279;DHT22;2153;47.744;10.580;2023-06-19T05:48:04;20.80;99.90
4279;DHT22;2153;47.744;10.580;2023-06-19T05:50:31;20.80;99.90
4279;DHT22;2153;47.744;10.580;2023-06-19T05:52:58;20.80;99.90
4279;DHT22;2153;47.744;10.580;2023-06-19T05:55:24;20.90;99.90
4279;DHT22;2153;47.744;10.580;2023-06-19T05:57:54;20.90;99.90
4279;DHT22;2153;47.744;10.580;2023-06-19T06:00:20;20.80;99.90
4279;DHT22;2153;47.744;10.580;2023-06-19T06:02:47;20.80;99.90
4279;DHT22;2153;47.744;10.580;2023-06-19T06:05:16;20.70;99.90
4279;DHT22;2153;47.744;10.580;2023-06-19T06:07:44;20.60;99.90
4279;DHT22;2153;47.744;10.580;2023-06-19T06:10:11;20.50;99.90
4279;DHT22;2153;47.744;10.580;2023-06-19T06:12:38;20.40;99.90
4279;DHT22;2153;47.744;10.580;2023-06-19T06:15:07;20.50;99.90
4279;DHT22;2153;47.744;10.580;2023-06-19T06:17:33;20.70;99.90
4279;DHT22;2153;47.744;10.580;2023-06-19T06:20:00;20.80;99.90
4279;DHT22;2153;47.744;10.580;2023-06-19T06:22:27;21.00;99.90
4279;DHT22;2153;47.744;10.580;2023-06-19T06:24:53;21.00;99.90
4279;DHT22;2153;47.744;10.580;2023-06-19T06:27:20;21.00;99.90
4279;DHT22;2153;47.744;10.580;2023-06-19T06:29:46;21.00;99.90
4279;DHT22;2153;47.744;10.580;2023-06-19T06:32:14;21.00;99.90
4279;DHT22;2153;47.744;10.580;2023-06-19T06:34:41;20.90;99.90
4279;DHT22;2153;47.744;10.580;2023-06-19T06:37:08;20.90;99.90
4279;DHT22;2153;47.744;10.580;2023-06-19T06:39:34;20.80;99.90
4279;DHT22;2153;47.744;10.580;2023-06-19T06:42:01;20.80;99.90
4279;DHT22;2153;47.744;10.580;2023-06-19T06:44:28;20.90;99.90
4279;DHT22;2153;47.744;10.580;2023-06-19T06:46:54;21.00;99.90
4279;DHT22;2153;47.744;10.580;2023-06-19T06:49:23;21.00;99.90
4279;DHT22;2153;47.744;10.580;2023-06-19T06:51:49;21.10;99.90
4279;DHT22;2153;47.744;10.580;2023-06-19T06:54:16;21.30;99.90
4279;DHT22;2153;47.744;10.580;2023-06-19T06:56:43;21.50;99.90
4279;DHT22;2153;47.744;10.580;2023-06-19T06:59:13;21.70;99.90
4279;DHT22;2153;47.744;10.580;2023-06-19T07:01:41;22.10;99.90
4279;DHT22;2153;47.744;10.580;2023-06-19T07:04:07;22.50;99.90
4279;DHT22;2153;47.744;10.580;2023-06-19T07:06:35;22.90;99.90
4279;DHT22;2153;47.744;10.580;2023-06-19T07:09:02;23.60;99.90
4279;DHT22;2153;47.744;10.580;2023-06-19T07:11:29;23.90;99.90
4279;DHT22;2153;47.744;10.580;2023-06-19T07:13:55;24.00;99.90
4279;DHT22;2153;47.744;10.580;2023-06-19T07:16:22;24.50;99.90
4279;DHT22;2153;47.744;10.580;2023-06-19T07:18:49;24.90;99.90
4279;DHT22;2153;47.744;10.580;2023-06-19T07:21:15;24.40;99.90
4279;DHT22;2153;47.744;10.580;2023-06-19T07:23:45;23.90;99.90
4279;DHT22;2153;47.744;10.580;2023-06-19T07:26:13;23.20;99.90
4279;DHT22;2153;47.744;10.580;2023-06-19T07:28:40;23.10;99.90
4279;DHT22;2153;47.744;10.580;2023-06-19T07:31:07;22.90;99.90
4279;DHT22;2153;47.744;10.580;2023-06-19T07:33:33;23.20;99.90
4279;DHT22;2153;47.744;10.580;2023-06-19T07:36:01;23.60;99.90
4279;DHT22;2153;47.744;10.580;2023-06-19T07:38:28;24.10;99.90
4279;DHT22;2153;47.744;10.580;2023-06-19T07:40:56;24.50;99.90
4279;DHT22;2153;47.744;10.580;2023-06-19T07:43:22;24.90;99.90
4279;DHT22;2153;47.744;10.580;2023-06-19T07:45:49;25.30;99.90
4279;DHT22;2153;47.744;10.580;2023-06-19T07:48:16;25.60;99.90
4279;DHT22;2153;47.744;10.580;2023-06-19T07:50:43;25.60;99.90
4279;DHT22;2153;47.744;10.580;2023-06-19T07:53:10;25.20;99.90
4279;DHT22;2153;47.744;10.580;2023-06-19T07:55:36;25.00;99.90
4279;DHT22;2153;47.744;10.580;2023-06-19T07:58:04;24.70;99.90
4279;DHT22;2153;47.744;10.580;2023-06-19T08:00:31;24.70;99.90
4279;DHT22;2153;47.744;10.580;2023-06-19T08:02:57;25.20;99.90
4279;DHT22;2153;47.744;10.580;2023-06-19T08:05:24;25.90;99.90
4279;DHT22;2153;47.744;10.580;2023-06-19T08:07:51;26.10;98.80
4279;DHT22;2153;47.744;10.580;2023-06-19T08:10:17;26.60;95.40
4279;DHT22;2153;47.744;10.580;2023-06-19T08:12:44;27.00;95.10
4279;DHT22;2153;47.744;10.580;2023-06-19T08:15:12;27.30;69.30
4279;DHT22;2153;47.744;10.580;2023-06-19T08:17:40;27.40;73.10
4279;DHT22;2153;47.744;10.580;2023-06-19T08:20:07;27.50;89.60
4279;DHT22;2153;47.744;10.580;2023-06-19T08:22:35;27.60;63.80
4279;DHT22;2153;47.744;10.580;2023-06-19T08:25:01;28.00;73.80
4279;DHT22;2153;47.744;10.580;2023-06-19T08:27:28;28.00;42.60
4279;DHT22;2153;47.744;10.580;2023-06-19T08:29:55;28.00;45.30
4279;DHT22;2153;47.744;10.580;2023-06-19T08:32:23;28.20;60.80
4279;DHT22;2153;47.744;10.580;2023-06-19T08:34:50;28.20;34.60
4279;DHT22;2153;47.744;10.580;2023-06-19T08:37:17;27.80;39.10
4279;DHT22;2153;47.744;10.580;2023-06-19T08:39:44;27.60;53.10
4279;DHT22;2153;47.744;10.580;2023-06-19T08:42:11;27.70;49.60
4279;DHT22;2153;47.744;10.580;2023-06-19T08:44:38;28.00;53.50
4279;DHT22;2153;47.744;10.580;2023-06-19T08:47:05;28.40;40.00
4279;DHT22;2153;47.744;10.580;2023-06-19T08:49:34;28.90;16.20
4279;DHT22;2153;47.744;10.580;2023-06-19T08:52:01;29.10;16.30
4279;DHT22;2153;47.744;10.580;2023-06-19T08:54:29;29.30;23.80
4279;DHT22;2153;47.744;10.580;2023-06-19T08:56:55;29.00;1.00
4279;DHT22;2153;47.744;10.580;2023-06-19T08:59:22;29.30;15.50
4279;DHT22;2153;47.744;10.580;2023-06-19T09:01:50;29.60;15.20
4279;DHT22;2153;47.744;10.580;2023-06-19T09:04:18;29.30;1.00
4279;DHT22;2153;47.744;10.580;2023-06-19T09:06:52;28.50;1.00
4279;DHT22;2153;47.744;10.580;2023-06-19T09:09:20;28.70;1.00
4279;DHT22;2153;47.744;10.580;2023-06-19T09:11:57;29.10;1.00
4279;DHT22;2153;47.744;10.580;2023-06-19T09:14:31;28.90;1.00
4279;DHT22;2153;47.744;10.580;2023-06-19T09:16:58;28.60;1.00
4279;DHT22;2153;47.744;10.580;2023-06-19T09:19:25;28.10;1.00
4279;DHT22;2153;47.744;10.580;2023-06-19T09:21:53;28.20;1.00
4279;DHT22;2153;47.744;10.580;2023-06-19T09:24:33;28.20;1.00
4279;DHT22;2153;47.744;10.580;2023-06-19T09:27:06;28.00;1.00
4279;DHT22;2153;47.744;10.580;2023-06-19T09:29:36;27.70;1.00
4279;DHT22;2153;47.744;10.580;2023-06-19T09:32:14;27.80;1.00
4279;DHT22;2153;47.744;10.580;2023-06-19T09:34:41;27.90;1.00
4279;DHT22;2153;47.744;10.580;2023-06-19T09:37:09;28.10;1.00
4279;DHT22;2153;47.744;10.580;2023-06-19T09:39:37;28.20;1.00
4279;DHT22;2153;47.744;10.580;2023-06-19T09:42:06;28.20;9.90
4279;DHT22;2153;47.744;10.580;2023-06-19T09:44:39;28.10;19.80
4279;DHT22;2153;47.744;10.580;2023-06-19T09:47:13;28.10;50.70
4279;DHT22;2153;47.744;10.580;2023-06-19T09:49:47;28.30;53.60
4279;DHT22;2153;47.744;10.580;2023-06-19T09:52:16;29.20;65.20
4279;DHT22;2153;47.744;10.580;2023-06-19T09:54:45;30.20;45.40
4279;DHT22;2153;47.744;10.580;2023-06-19T09:57:12;30.80;16.60
4279;DHT22;2153;47.744;10.580;2023-06-19T09:59:40;31.20;7.20
4279;DHT22;2153;47.744;10.580;2023-06-19T10:02:08;30.70;1.80
4279;DHT22;2153;47.744;10.580;2023-06-19T10:04:42;31.00;1.00
4279;DHT22;2153;47.744;10.580;2023-06-19T10:07:17;31.20;1.00
4279;DHT22;2153;47.744;10.580;2023-06-19T10:10:01;31.30;1.00
4279;DHT22;2153;47.744;10.580;2023-06-19T10:12:37;31.60;1.00
4279;DHT22;2153;47.744;10.580;2023-06-19T10:15:16;31.70;1.00
4279;DHT22;2153;47.744;10.580;2023-06-19T10:17:47;31.70;1.00
4279;DHT22;2153;47.744;10.580;2023-06-19T10:20:25;32.30;1.00
4279;DHT22;2153;47.744;10.580;2023-06-19T10:22:58;32.50;1.00
4279;DHT22;2153;47.744;10.580;2023-06-19T10:25:28;32.60;1.00
4279;DHT22;2153;47.744;10.580;2023-06-19T10:27:55;32.50;1.00
4279;DHT22;2153;47.744;10.580;2023-06-19T10:30:22;32.10;1.00
4279;DHT22;2153;47.744;10.580;2023-06-19T10:32:49;31.60;1.00
4279;DHT22;2153;47.744;10.580;2023-06-19T10:35:18;31.60;1.00
4279;DHT22;2153;47.744;10.580;2023-06-19T10:37:47;32.10;1.00
4279;DHT22;2153;47.744;10.580;2023-06-19T10:40:16;32.60;1.00
4279;DHT22;2153;47.744;10.580;2023-06-19T10:42:43;33.00;1.00
4279;DHT22;2153;47.744;10.580;2023-06-19T10:45:11;33.40;1.00
4279;DHT22;2153;47.744;10.580;2023-06-19T10:47:39;33.10;1.00
4279;DHT22;2153;47.744;10.580;2023-06-19T10:50:10;32.80;1.00
4279;DHT22;2153;47.744;10.580;2023-06-19T10:52:39;32.70;1.00
4279;DHT22;2153;47.744;10.580;2023-06-19T10:55:07;32.80;1.00
4279;DHT22;2153;47.744;10.580;2023-06-19T10:57:35;32.40;1.00
4279;DHT22;2153;47.744;10.580;2023-06-19T11:00:02;32.10;1.00
4279;DHT22;2153;47.744;10.580;2023-06-19T11:02:36;32.00;1.00
4279;DHT22;2153;47.744;10.580;2023-06-19T11:05:05;32.00;1.00
4279;DHT22;2153;47.744;10.580;2023-06-19T11:07:32;32.30;1.00
4279;DHT22;2153;47.744;10.580;2023-06-19T11:09:59;32.60;1.00
4279;DHT22;2153;47.744;10.580;2023-06-19T11:12:26;32.50;1.00
4279;DHT22;2153;47.744;10.580;2023-06-19T11:14:54;32.50;1.00
4279;DHT22;2153;47.744;10.580;2023-06-19T11:17:20;32.30;1.00
4279;DHT22;2153;47.744;10.580;2023-06-19T11:19:49;32.50;1.00
4279;DHT22;2153;47.744;10.580;2023-06-19T11:22:16;32.20;1.00
4279;DHT22;2153;47.744;10.580;2023-06-19T11:24:43;32.30;1.00
4279;DHT22;2153;47.744;10.580;2023-06-19T11:27:17;32.80;1.00
4279;DHT22;2153;47.744;10.580;2023-06-19T11:29:44;32.50;1.00
4279;DHT22;2153;47.744;10.580;2023-06-19T11:32:14;32.80;1.00
4279;DHT22;2153;47.744;10.580;2023-06-19T11:34:41;33.00;1.00
4279;DHT22;2153;47.744;10.580;2023-06-19T11:37:13;32.80;1.00
4279;DHT22;2153;47.744;10.580;2023-06-19T11:39:40;32.90;1.00
4279;DHT22;2153;47.744;10.580;2023-06-19T11:42:07;32.60;1.00
4279;DHT22;2153;47.744;10.580;2023-06-19T11:44:34;32.60;1.00
4279;DHT22;2153;47.744;10.580;2023-06-19T11:47:01;32.70;1.00
4279;DHT22;2153;47.744;10.580;2023-06-19T11:49:34;33.10;1.00
4279;DHT22;2153;47.744;10.580;2023-06-19T11:52:01;32.70;1.00
4279;DHT22;2153;47.744;10.580;2023-06-19T11:54:29;33.10;1.00
4279;DHT22;2153;47.744;10.580;2023-06-19T11:56:56;33.60;1.00
4279;DHT22;2153;47.744;10.580;2023-06-19T11:59:22;33.80;1.00
4279;DHT22;2153;47.744;10.580;2023-06-19T12:01:49;33.90;1.00
4279;DHT22;2153;47.744;10.580;2023-06-19T12:04:16;33.60;1.00
4279;DHT22;2153;47.744;10.580;2023-06-19T12:06:44;33.30;1.00
4279;DHT22;2153;47.744;10.580;2023-06-19T12:09:10;32.80;1.00
4279;DHT22;2153;47.744;10.580;2023-06-19T12:11:37;32.30;1.00
4279;DHT22;2153;47.744;10.580;2023-06-19T12:14:04;31.50;1.00
4279;DHT22;2153;47.744;10.580;2023-06-19T12:16:30;31.80;1.00
4279;DHT22;2153;47.744;10.580;2023-06-19T12:18:57;32.10;1.00
4279;DHT22;2153;47.744;10.580;2023-06-19T12:21:24;31.40;1.00
4279;DHT22;2153;47.744;10.580;2023-06-19T12:23:52;30.10;1.00
4279;DHT22;2153;47.744;10.580;2023-06-19T12:26:19;29.60;1.00
4279;DHT22;2153;47.744;10.580;2023-06-19T12:28:45;30.20;1.00
4279;DHT22;2153;47.744;10.580;2023-06-19T12:31:12;30.20;1.00
4279;DHT22;2153;47.744;10.580;2023-06-19T12:33:39;30.70;1.00
4279;DHT22;2153;47.744;10.580;2023-06-19T12:36:10;31.10;1.00
4279;DHT22;2153;47.744;10.580;2023-06-19T12:38:39;30.80;1.00
4279;DHT22;2153;47.744;10.580;2023-06-19T12:41:07;31.10;1.00
4279;DHT22;2153;47.744;10.580;2023-06-19T12:43:33;30.60;1.00
4279;DHT22;2153;47.744;10.580;2023-06-19T12:46:00;30.40;1.00
4279;DHT22;2153;47.744;10.580;2023-06-19T12:48:27;30.80;1.00
4279;DHT22;2153;47.744;10.580;2023-06-19T12:50:54;31.20;1.00
4279;DHT22;2153;47.744;10.580;2023-06-19T12:53:21;31.60;1.00
4279;DHT22;2153;47.744;10.580;2023-06-19T12:55:51;31.60;1.00
4279;DHT22;2153;47.744;10.580;2023-06-19T12:58:19;32.00;1.00
4279;DHT22;2153;47.744;10.580;2023-06-19T13:00:46;32.20;1.00
4279;DHT22;2153;47.744;10.580;2023-06-19T13:03:13;32.40;1.00
4279;DHT22;2153;47.744;10.580;2023-06-19T13:05:39;32.70;1.00
4279;DHT22;2153;47.744;10.580;2023-06-19T13:08:07;32.90;1.00
4279;DHT22;2153;47.744;10.580;2023-06-19T13:10:33;32.40;1.00
4279;DHT22;2153;47.744;10.580;2023-06-19T13:13:00;32.40;1.00
4279;DHT22;2153;47.744;10.580;2023-06-19T13:15:28;32.40;1.00
4279;DHT22;2153;47.744;10.580;2023-06-19T13:17:54;32.10;1.00
4279;DHT22;2153;47.744;10.580;2023-06-19T13:20:21;31.30;1.00
4279;DHT22;2153;47.744;10.580;2023-06-19T13:22:48;31.30;1.00
4279;DHT22;2153;47.744;10.580;2023-06-19T13:25:14;31.30;1.00
4279;DHT22;2153;47.744;10.580;2023-06-19T13:27:41;31.30;1.00
4279;DHT22;2153;47.744;10.580;2023-06-19T13:30:08;31.10;1.00
4279;DHT22;2153;47.744;10.580;2023-06-19T13:32:37;31.10;1.00
4279;DHT22;2153;47.744;10.580;2023-06-19T13:35:05;31.00;1.00
4279;DHT22;2153;47.744;10.580;2023-06-19T13:37:33;31.20;1.00
4279;DHT22;2153;47.744;10.580;2023-06-19T13:40:00;31.70;1.00
4279;DHT22;2153;47.744;10.580;2023-06-19T13:42:29;32.20;1.00
4279;DHT22;2153;47.744;10.580;2023-06-19T13:44:56;32.50;1.00
4279;DHT22;2153;47.744;10.580;2023-06-19T13:47:22;32.70;1.00
4279;DHT22;2153;47.744;10.580;2023-06-19T13:49:51;32.90;1.00
4279;DHT22;2153;47.744;10.580;2023-06-19T13:52:18;32.60;1.00
4279;DHT22;2153;47.744;10.580;2023-06-19T13:54:45;32.70;1.00
4279;DHT22;2153;47.744;10.580;2023-06-19T13:57:12;32.80;1.00
4279;DHT22;2153;47.744;10.580;2023-06-19T13:59:39;32.00;1.00
4279;DHT22;2153;47.744;10.580;2023-06-19T14:02:06;31.00;1.00
4279;DHT22;2153;47.744;10.580;2023-06-19T14:04:32;30.60;1.00
4279;DHT22;2153;47.744;10.580;2023-06-19T14:07:00;30.40;1.00
4279;DHT22;2153;47.744;10.580;2023-06-19T14:09:27;29.80;1.00
4279;DHT22;2153;47.744;10.580;2023-06-19T14:11:53;29.60;1.00
4279;DHT22;2153;47.744;10.580;2023-06-19T14:14:20;29.40;1.00
4279;DHT22;2153;47.744;10.580;2023-06-19T14:16:47;29.50;1.00
4279;DHT22;2153;47.744;10.580;2023-06-19T14:19:13;30.00;1.00
4279;DHT22;2153;47.744;10.580;2023-06-19T14:21:40;30.60;1.00
4279;DHT22;2153;47.744;10.580;2023-06-19T14:24:08;30.80;1.00
4279;DHT22;2153;47.744;10.580;2023-06-19T14:26:35;31.10;1.00
4279;DHT22;2153;47.744;10.580;2023-06-19T14:29:02;31.40;1.00
4279;DHT22;2153;47.744;10.580;2023-06-19T14:31:28;31.70;1.00
4279;DHT22;2153;47.744;10.580;2023-06-19T14:33:55;31.50;1.00
4279;DHT22;2153;47.744;10.580;2023-06-19T14:36:21;31.40;1.00
4279;DHT22;2153;47.744;10.580;2023-06-19T14:38:48;31.50;1.00
4279;DHT22;2153;47.744;10.580;2023-06-19T14:41:16;31.70;1.00
4279;DHT22;2153;47.744;10.580;2023-06-19T14:43:43;31.70;1.00
4279;DHT22;2153;47.744;10.580;2023-06-19T14:46:09;31.50;1.00
4279;DHT22;2153;47.744;10.580;2023-06-19T14:48:36;31.30;1.00
4279;DHT22;2153;47.744;10.580;2023-06-19T14:51:03;31.10;1.00
4279;DHT22;2153;47.744;10.580;2023-06-19T14:53:31;31.20;1.00
4279;DHT22;2153;47.744;10.580;2023-06-19T14:55:58;31.40;1.00
4279;DHT22;2153;47.744;10.580;2023-06-19T14:58:26;31.60;1.00
4279;DHT22;2153;47.744;10.580;2023-06-19T15:00:54;31.70;1.00
4279;DHT22;2153;47.744;10.580;2023-06-19T15:03:21;31.70;1.00
4279;DHT22;2153;47.744;10.580;2023-06-19T15:05:47;31.50;1.00
4279;DHT22;2153;47.744;10.580;2023-06-19T15:08:14;31.50;1.00
4279;DHT22;2153;47.744;10.580;2023-06-19T15:10:46;30.80;1.00
4279;DHT22;2153;47.744;10.580;2023-06-19T15:13:13;29.80;1.00
4279;DHT22;2153;47.744;10.580;2023-06-19T15:15:43;29.40;1.00
4279;DHT22;2153;47.744;10.580;2023-06-19T15:18:09;29.20;1.00
4279;DHT22;2153;47.744;10.580;2023-06-19T15:20:36;28.70;1.00
4279;DHT22;2153;47.744;10.580;2023-06-19T15:23:04;28.70;1.00
4279;DHT22;2153;47.744;10.580;2023-06-19T15:25:31;28.80;1.00
4279;DHT22;2153;47.744;10.580;2023-06-19T15:27:58;28.80;1.00
4279;DHT22;2153;47.744;10.580;2023-06-19T15:30:24;28.90;1.00
4279;DHT22;2153;47.744;10.580;2023-06-19T15:32:52;29.30;1.00
4279;DHT22;2153;47.744;10.580;2023-06-19T15:35:19;29.00;1.00
4279;DHT22;2153;47.744;10.580;2023-06-19T15:37:46;28.90;1.00
4279;DHT22;2153;47.744;10.580;2023-06-19T15:40:12;29.30;1.00
4279;DHT22;2153;47.744;10.580;2023-06-19T15:42:39;29.40;1.00
4279;DHT22;2153;47.744;10.580;2023-06-19T15:45:07;29.10;1.00
4279;DHT22;2153;47.744;10.580;2023-06-19T15:47:34;29.30;1.00
4279;DHT22;2153;47.744;10.580;2023-06-19T15:50:02;29.30;1.00
4279;DHT22;2153;47.744;10.580;2023-06-19T15:52:29;29.50;1.00
4279;DHT22;2153;47.744;10.580;2023-06-19T15:54:56;29.60;1.00